Time;durP1;ratioP1;P1;durP2;ratioP2;P2;SDS_P1;SDS_P2;PMS_P1;PMS_P2;Temp;Humidity;BMP_temperature;BMP_pressure;BME280_temperature;BME280_humidity;BME280_pressure;Samples;Min_cycle;Max_cycle;Signal;HPM_P1;HPM_P2
2021/07/19 00:02:17;;;;;;;2.47;2.20;;;19.90;80.10;;;;;;5071153;28;20099;-68
2021/07/19 00:04:45;;;;;;;2.65;2.42;;;19.90;80.20;;;;;;5070344;28;20024;-68
2021/07/19 00:07:12;;;;;;;5.03;2.38;;;19.90;80.70;;;;;;5070781;28;20162;-68
2021/07/19 00:09:38;;;;;;;3.67;2.13;;;19.80;80.30;;;;;;5070600;28;20393;-68
2021/07/19 00:12:05;;;;;;;5.20;2.33;;;19.90;80.50;;;;;;5070662;28;20025;-68
2021/07/19 00:14:32;;;;;;;3.47;2.53;;;19.90;80.70;;;;;;5052406;28;20052;-68
2021/07/19 00:16:59;;;;;;;2.63;2.28;;;19.90;80.70;;;;;;5070544;28;20016;-67
2021/07/19 00:19:25;;;;;;;3.17;2.60;;;19.80;80.70;;;;;;5080083;28;20082;-67
2021/07/19 00:21:50;;;;;;;6.50;2.58;;;19.80;80.70;;;;;;5096182;28;20019;-68
2021/07/19 00:24:16;;;;;;;2.63;2.42;;;19.80;80.80;;;;;;5111016;28;20053;-68
2021/07/19 00:26:42;;;;;;;2.97;2.42;;;19.80;80.80;;;;;;5110462;28;20023;-67
2021/07/19 00:29:08;;;;;;;3.83;2.50;;;19.80;80.90;;;;;;5111200;28;20057;-68
2021/07/19 00:31:34;;;;;;;5.05;2.65;;;19.70;80.90;;;;;;5111149;28;20088;-67
2021/07/19 00:34:01;;;;;;;4.40;2.85;;;19.70;80.90;;;;;;5110892;28;20019;-67
2021/07/19 00:36:27;;;;;;;7.68;2.70;;;19.70;81.00;;;;;;5110512;28;20095;-68
2021/07/19 00:38:53;;;;;;;5.15;2.70;;;19.60;81.10;;;;;;5095794;28;20428;-67
2021/07/19 00:41:20;;;;;;;5.88;2.45;;;19.60;81.20;;;;;;5070204;28;20059;-67
2021/07/19 00:43:45;;;;;;;2.50;2.22;;;19.60;81.20;;;;;;5070492;28;20029;-67
2021/07/19 00:46:11;;;;;;;5.15;2.63;;;19.60;81.30;;;;;;5069820;28;20473;-67
2021/07/19 00:48:37;;;;;;;4.40;2.60;;;19.60;81.40;;;;;;5069892;28;20111;-68
2021/07/19 00:51:03;;;;;;;4.45;2.70;;;19.50;81.50;;;;;;5070317;28;20112;-68
2021/07/19 00:53:28;;;;;;;3.50;2.75;;;19.50;81.50;;;;;;5070280;28;20028;-68
2021/07/19 00:55:55;;;;;;;3.17;2.78;;;19.50;81.60;;;;;;5069529;28;20029;-67
2021/07/19 00:58:24;;;;;;;3.13;2.90;;;19.50;81.70;;;;;;5070250;28;20384;-67
2021/07/19 01:00:53;;;;;;;2.85;2.40;;;19.50;81.80;;;;;;5070371;28;20052;-67
2021/07/19 01:03:19;;;;;;;5.20;2.42;;;19.40;81.80;;;;;;5070440;28;20585;-67
2021/07/19 01:05:46;;;;;;;3.25;2.60;;;19.40;81.80;;;;;;5069575;28;20027;-68
2021/07/19 01:08:11;;;;;;;3.75;2.65;;;19.40;81.80;;;;;;5071469;28;20091;-68
2021/07/19 01:10:37;;;;;;;3.20;2.75;;;19.30;81.90;;;;;;5074122;28;20218;-67
2021/07/19 01:13:04;;;;;;;2.78;2.47;;;19.20;81.90;;;;;;5074312;28;20025;-68
2021/07/19 01:15:33;;;;;;;3.00;2.80;;;19.10;82.10;;;;;;5073694;28;20099;-67
2021/07/19 01:17:59;;;;;;;3.97;3.00;;;19.10;82.20;;;;;;5056113;28;20130;-67
2021/07/19 01:21:01;;;;;;;4.72;2.75;;;19.10;82.20;;;;;;5063827;28;20066;-67
2021/07/19 01:23:51;;;;;;;4.40;2.97;;;19.10;82.60;;;;;;5084849;28;20081;-68
2021/07/19 01:26:29;;;;;;;2.92;2.50;;;19.10;82.70;;;;;;5095492;28;20028;-67
2021/07/19 01:28:57;;;;;;;3.75;2.78;;;19.10;82.80;;;;;;5114603;28;20011;-68
2021/07/19 01:31:30;;;;;;;4.10;2.85;;;19.10;83.00;;;;;;5114600;28;20481;-67
2021/07/19 01:34:06;;;;;;;4.68;2.95;;;19.10;83.50;;;;;;5114398;28;20552;-68
2021/07/19 01:36:36;;;;;;;3.90;3.15;;;19.00;83.70;;;;;;5113762;28;20167;-67
2021/07/19 01:39:05;;;;;;;4.63;2.92;;;18.90;83.40;;;;;;5093538;28;20027;-67
2021/07/19 01:41:33;;;;;;;4.30;2.97;;;18.90;83.60;;;;;;5075732;28;20024;-67
2021/07/19 01:43:59;;;;;;;4.28;2.97;;;18.90;83.60;;;;;;5055963;28;20052;-67
2021/07/19 01:46:26;;;;;;;4.63;3.13;;;18.80;83.60;;;;;;5072907;28;20094;-67
2021/07/19 01:48:53;;;;;;;4.25;2.53;;;18.90;83.50;;;;;;5073632;28;20031;-67
2021/07/19 01:51:20;;;;;;;3.63;3.25;;;18.80;83.40;;;;;;5055914;28;20684;-67
2021/07/19 01:53:48;;;;;;;3.78;2.95;;;18.80;83.60;;;;;;5073763;28;20048;-67
2021/07/19 01:56:14;;;;;;;6.63;3.35;;;18.80;83.60;;;;;;5072500;28;20063;-67
2021/07/19 01:58:40;;;;;;;3.38;2.83;;;18.80;84.10;;;;;;5055672;28;20028;-68
2021/07/19 02:01:07;;;;;;;4.78;3.00;;;18.80;83.60;;;;;;5073696;28;20354;-68
2021/07/19 02:03:32;;;;;;;7.63;3.10;;;18.80;83.60;;;;;;5073434;28;20017;-67
2021/07/19 02:05:59;;;;;;;2.80;2.60;;;18.80;83.70;;;;;;5072457;28;20482;-68
2021/07/19 02:08:26;;;;;;;3.90;2.80;;;18.70;83.70;;;;;;5073261;28;20031;-67
2021/07/19 02:10:53;;;;;;;3.55;2.72;;;18.60;83.90;;;;;;5075697;28;20039;-68
2021/07/19 02:13:24;;;;;;;4.53;3.13;;;18.60;84.10;;;;;;5073408;28;20021;-68
2021/07/19 02:15:53;;;;;;;3.30;2.63;;;18.60;84.10;;;;;;5072314;28;20449;-67
2021/07/19 02:18:23;;;;;;;4.15;2.88;;;18.60;84.20;;;;;;5063780;28;20020;-67
2021/07/19 02:20:49;;;;;;;2.75;2.55;;;18.60;84.50;;;;;;5092113;28;20020;-67
2021/07/19 02:23:17;;;;;;;3.30;2.50;;;18.60;84.50;;;;;;5100995;28;20595;-68
2021/07/19 02:25:43;;;;;;;3.78;2.63;;;18.50;84.50;;;;;;5112521;28;20391;-67
2021/07/19 02:28:13;;;;;;;6.60;2.80;;;18.50;84.60;;;;;;5113728;28;20020;-68
2021/07/19 02:30:41;;;;;;;4.10;2.88;;;18.40;84.70;;;;;;5113733;28;20103;-67
2021/07/19 02:33:07;;;;;;;6.55;2.60;;;18.50;84.70;;;;;;5113734;28;20024;-68
2021/07/19 02:35:34;;;;;;;3.28;2.70;;;18.40;84.70;;;;;;5112409;28;20043;-68
2021/07/19 02:38:04;;;;;;;3.63;2.40;;;18.40;84.90;;;;;;5113440;28;20062;-67
2021/07/19 02:40:31;;;;;;;2.85;2.63;;;18.40;85.10;;;;;;5105607;28;20027;-68
2021/07/19 02:43:00;;;;;;;3.85;2.65;;;18.40;85.10;;;;;;5072868;28;20468;-67
2021/07/19 02:45:28;;;;;;;4.68;3.00;;;18.30;85.20;;;;;;5071740;28;20040;-67
2021/07/19 02:47:54;;;;;;;2.97;2.70;;;18.30;85.50;;;;;;5072731;28;20016;-67
2021/07/19 02:50:24;;;;;;;3.15;2.88;;;18.20;85.50;;;;;;5072714;28;20062;-67
2021/07/19 02:52:51;;;;;;;6.88;2.90;;;18.20;85.80;;;;;;5072836;28;20039;-67
2021/07/19 02:55:18;;;;;;;3.60;2.50;;;18.20;85.80;;;;;;5071565;28;20020;-67
2021/07/19 02:57:44;;;;;;;3.10;2.72;;;18.20;85.80;;;;;;5072503;28;20725;-67
2021/07/19 03:00:12;;;;;;;3.63;3.08;;;18.20;85.70;;;;;;5054875;28;20063;-68
2021/07/19 03:02:59;;;;;;;5.10;3.03;;;18.20;85.70;;;;;;5072667;28;20104;-67
2021/07/19 03:05:29;;;;;;;3.97;2.67;;;18.20;85.80;;;;;;5071353;28;20142;-67
2021/07/19 03:07:57;;;;;;;3.00;2.70;;;18.20;85.90;;;;;;5072287;28;20098;-67
2021/07/19 03:10:26;;;;;;;5.53;3.45;;;18.20;85.90;;;;;;5074509;28;20472;-67
2021/07/19 03:12:57;;;;;;;3.92;2.78;;;18.10;85.90;;;;;;5072142;28;20413;-68
2021/07/19 03:15:26;;;;;;;6.85;3.30;;;18.20;86.00;;;;;;5071340;28;20032;-67
2021/07/19 03:17:52;;;;;;;3.38;2.88;;;18.10;86.10;;;;;;5054113;28;20027;-67
2021/07/19 03:20:18;;;;;;;3.05;2.72;;;18.10;86.10;;;;;;5089359;28;20020;-66
2021/07/19 03:22:45;;;;;;;3.70;2.75;;;18.10;86.20;;;;;;5099517;28;20028;-66
2021/07/19 03:25:12;;;;;;;4.38;2.72;;;18.00;86.30;;;;;;5091145;28;20036;-67
2021/07/19 03:27:40;;;;;;;4.78;3.20;;;18.00;86.30;;;;;;5092093;28;20077;-67
2021/07/19 03:30:07;;;;;;;3.63;2.60;;;18.00;86.40;;;;;;5092348;28;20472;-67
2021/07/19 03:32:35;;;;;;;2.85;2.65;;;18.00;86.50;;;;;;5092001;28;20048;-67
2021/07/19 03:35:03;;;;;;;3.50;2.22;;;17.90;86.50;;;;;;5090944;28;20737;-67
2021/07/19 03:37:29;;;;;;;5.50;2.63;;;17.90;86.60;;;;;;5091854;28;20031;-67
2021/07/19 03:39:55;;;;;;;2.60;2.40;;;17.90;86.60;;;;;;5092081;28;20073;-66
2021/07/19 03:42:21;;;;;;;4.30;2.55;;;17.90;86.60;;;;;;5091543;28;20043;-67
2021/07/19 03:44:48;;;;;;;10.80;3.45;;;17.80;86.60;;;;;;5072697;28;20499;-67
2021/07/19 03:47:15;;;;;;;4.00;2.83;;;17.80;86.60;;;;;;5091841;28;20039;-67
2021/07/19 03:49:41;;;;;;;5.45;2.85;;;17.80;86.60;;;;;;5091876;28;20028;-67
2021/07/19 03:52:07;;;;;;;8.32;3.22;;;17.80;86.70;;;;;;5091555;28;20032;-67
2021/07/19 03:54:33;;;;;;;5.30;3.00;;;17.80;86.80;;;;;;5073121;28;20107;-67
2021/07/19 03:57:03;;;;;;;3.35;3.05;;;17.70;87.10;;;;;;5091131;28;20046;-67
2021/07/19 03:59:32;;;;;;;5.57;3.40;;;17.70;87.30;;;;;;5091713;28;20480;-68
2021/07/19 04:02:00;;;;;;;10.32;3.78;;;17.70;87.50;;;;;;5091695;28;20392;-67
2021/07/19 04:04:31;;;;;;;7.75;3.58;;;17.60;87.60;;;;;;5091066;28;20019;-68
2021/07/19 04:07:01;;;;;;;5.25;3.22;;;17.60;87.80;;;;;;5091019;28;20024;-67
2021/07/19 04:09:29;;;;;;;8.23;3.75;;;17.70;88.00;;;;;;5091485;28;20480;-67
2021/07/19 04:11:55;;;;;;;5.43;3.75;;;17.70;88.20;;;;;;5058372;28;20039;-67
2021/07/19 04:14:22;;;;;;;4.25;3.33;;;17.60;88.20;;;;;;5070976;28;20020;-68
2021/07/19 04:16:48;;;;;;;3.50;3.20;;;17.70;88.50;;;;;;5051921;28;20038;-67
2021/07/19 04:19:14;;;;;;;6.30;3.83;;;17.70;88.50;;;;;;5087652;28;20091;-68
2021/07/19 04:21:40;;;;;;;8.00;3.90;;;17.70;88.60;;;;;;5093882;28;20130;-67
2021/07/19 04:24:08;;;;;;;4.78;3.13;;;17.70;88.60;;;;;;5095390;28;20039;-67
2021/07/19 04:26:36;;;;;;;4.20;3.58;;;17.80;88.70;;;;;;5069513;28;20371;-67
2021/07/19 04:29:06;;;;;;;3.90;3.35;;;17.80;88.70;;;;;;5091039;28;20024;-67
2021/07/19 04:31:32;;;;;;;8.52;3.42;;;17.90;88.70;;;;;;5072666;28;20107;-67
2021/07/19 04:33:57;;;;;;;5.18;3.65;;;17.90;88.80;;;;;;5091357;28;20043;-67
2021/07/19 04:36:23;;;;;;;7.25;4.05;;;17.90;88.80;;;;;;5089877;28;20389;-67
2021/07/19 04:38:49;;;;;;;4.88;3.58;;;18.00;88.80;;;;;;5091185;28;20020;-67
2021/07/19 04:41:19;;;;;;;4.30;3.70;;;18.00;88.90;;;;;;5081708;28;20028;-67
2021/07/19 04:43:46;;;;;;;4.93;3.83;;;18.00;89.10;;;;;;5070716;28;20122;-68
2021/07/19 04:46:11;;;;;;;4.60;3.30;;;18.00;89.10;;;;;;5069459;28;20535;-68
2021/07/19 04:48:38;;;;;;;5.88;3.30;;;18.10;89.10;;;;;;5070455;28;20119;-68
2021/07/19 04:51:03;;;;;;;5.43;3.13;;;18.10;89.20;;;;;;5070503;28;20067;-67
2021/07/19 04:53:29;;;;;;;4.15;3.28;;;18.10;89.20;;;;;;5070641;28;20048;-67
2021/07/19 04:55:58;;;;;;;4.93;3.03;;;18.10;89.30;;;;;;5069654;28;20052;-68
2021/07/19 04:58:25;;;;;;;5.05;3.88;;;18.10;89.40;;;;;;5070668;28;20040;-67
2021/07/19 05:00:54;;;;;;;4.25;3.20;;;18.20;89.50;;;;;;5066293;28;20067;-67
2021/07/19 05:03:24;;;;;;;3.53;3.17;;;18.20;89.60;;;;;;5090267;28;20501;-67
2021/07/19 05:05:52;;;;;;;5.35;3.58;;;18.20;89.60;;;;;;5087063;28;20028;-68
2021/07/19 05:08:20;;;;;;;9.18;3.83;;;18.30;89.60;;;;;;5157472;22;20044;-73
2021/07/19 05:10:48;;;;;;;12.73;3.80;;;18.30;89.80;;;;;;5097356;28;20035;-68
2021/07/19 05:13:15;;;;;;;9.57;4.07;;;18.30;89.80;;;;;;5089858;28;20036;-67
2021/07/19 05:15:41;;;;;;;11.27;4.07;;;18.20;89.90;;;;;;5089821;28;20032;-68
2021/07/19 05:18:08;;;;;;;8.00;4.10;;;18.20;90.10;;;;;;5072417;28;20020;-67
2021/07/19 05:20:35;;;;;;;11.50;4.07;;;18.20;90.20;;;;;;5090515;28;20031;-72
2021/07/19 05:23:01;;;;;;;6.63;4.15;;;18.20;90.30;;;;;;5090682;28;20073;-67
2021/07/19 05:25:32;;;;;;;4.13;3.53;;;18.20;90.40;;;;;;5087509;28;20032;-67
2021/07/19 05:27:58;;;;;;;12.02;4.90;;;18.30;90.40;;;;;;5090399;28;20062;-69
2021/07/19 05:30:24;;;;;;;5.43;4.00;;;18.30;90.60;;;;;;5072857;28;20056;-66
2021/07/19 05:32:50;;;;;;;4.93;4.00;;;18.40;90.40;;;;;;5090737;28;20062;-67
2021/07/19 05:35:17;;;;;;;6.20;3.92;;;18.40;90.40;;;;;;5089639;28;20099;-72
2021/07/19 05:37:43;;;;;;;7.10;4.22;;;18.40;90.40;;;;;;5090642;28;20024;-67
2021/07/19 05:40:09;;;;;;;7.97;3.75;;;18.40;90.40;;;;;;5090545;28;20047;-69
2021/07/19 05:42:35;;;;;;;8.57;5.55;;;18.50;90.40;;;;;;5090515;28;20032;-67
2021/07/19 05:45:00;;;;;;;5.05;3.90;;;18.50;90.40;;;;;;5071566;28;20035;-69
2021/07/19 05:47:26;;;;;;;7.53;4.22;;;18.60;90.40;;;;;;5090510;28;20024;-73
2021/07/19 05:49:51;;;;;;;12.35;3.95;;;18.60;90.40;;;;;;5090469;28;20028;-67
2021/07/19 05:52:17;;;;;;;7.32;3.83;;;18.70;90.40;;;;;;5090751;28;20111;-68
2021/07/19 05:54:42;;;;;;;5.68;3.67;;;18.70;90.30;;;;;;5091319;28;20364;-70
2021/07/19 05:57:08;;;;;;;4.93;3.58;;;18.80;90.30;;;;;;5094268;28;20020;-67
2021/07/19 05:59:34;;;;;;;7.22;5.00;;;18.90;90.30;;;;;;5094339;28;20028;-68
2021/07/19 06:01:59;;;;;;;8.73;4.60;;;18.90;90.30;;;;;;5094357;28;20101;-67
2021/07/19 06:04:25;;;;;;;5.68;3.97;;;19.00;90.20;;;;;;5075756;28;20118;-73
2021/07/19 06:06:50;;;;;;;7.57;4.13;;;19.10;90.20;;;;;;5093251;28;20046;-72
2021/07/19 06:09:16;;;;;;;7.15;3.90;;;19.20;90.10;;;;;;5093665;28;20036;-68
2021/07/19 06:11:41;;;;;;;5.78;3.40;;;19.20;90.10;;;;;;5093818;28;20025;-67
2021/07/19 06:14:07;;;;;;;3.95;3.35;;;19.30;90.10;;;;;;5093973;28;20017;-69
2021/07/19 06:16:33;;;;;;;4.38;3.60;;;19.40;90.10;;;;;;5092959;28;20464;-72
2021/07/19 06:18:58;;;;;;;4.85;3.25;;;19.40;90.00;;;;;;5093277;28;20020;-68
2021/07/19 06:21:24;;;;;;;4.07;3.65;;;19.50;90.00;;;;;;5093719;28;20028;-68
2021/07/19 06:23:49;;;;;;;5.15;3.60;;;19.60;89.90;;;;;;5093797;28;20054;-69
2021/07/19 06:26:15;;;;;;;10.07;8.43;;;19.70;89.70;;;;;;5089380;28;20061;-67
2021/07/19 06:28:40;;;;;;;10.65;7.97;;;19.80;89.70;;;;;;5093616;28;20027;-68
2021/07/19 06:31:06;;;;;;;9.73;7.97;;;19.90;89.70;;;;;;5093575;28;20043;-68
2021/07/19 06:33:31;;;;;;;7.60;5.90;;;20.00;89.60;;;;;;5093886;28;20020;-69
2021/07/19 06:35:57;;;;;;;14.23;7.15;;;20.10;89.50;;;;;;5092406;28;20030;-67
2021/07/19 06:38:23;;;;;;;6.18;4.80;;;20.20;89.40;;;;;;5093442;28;20032;-68
2021/07/19 06:40:48;;;;;;;13.38;6.93;;;20.30;89.30;;;;;;5093061;28;20024;-68
2021/07/19 06:43:14;;;;;;;6.63;4.30;;;20.40;89.20;;;;;;5093727;28;20494;-69
2021/07/19 06:45:40;;;;;;;7.72;4.00;;;20.50;89.10;;;;;;5092346;28;20048;-72
2021/07/19 06:48:06;;;;;;;5.88;3.75;;;20.50;88.90;;;;;;5093514;28;20490;-67
2021/07/19 06:50:32;;;;;;;6.72;4.22;;;20.60;88.70;;;;;;5093366;28;20696;-68
2021/07/19 06:52:57;;;;;;;6.32;3.97;;;20.70;88.60;;;;;;5093533;28;20024;-68
2021/07/19 06:55:23;;;;;;;6.43;3.70;;;20.80;88.20;;;;;;5091864;28;20020;-68
2021/07/19 06:57:48;;;;;;;4.80;3.60;;;20.90;88.30;;;;;;5093353;28;20024;-69
2021/07/19 07:00:14;;;;;;;6.38;3.58;;;21.10;88.00;;;;;;5093137;28;20012;-71
2021/07/19 07:02:40;;;;;;;8.90;3.90;;;21.20;87.70;;;;;;5093460;28;20024;-67
2021/07/19 07:05:06;;;;;;;5.90;3.50;;;21.30;87.20;;;;;;5091709;28;20753;-67
2021/07/19 07:07:31;;;;;;;4.05;3.20;;;21.40;87.00;;;;;;5092905;28;20035;-68
2021/07/19 07:09:57;;;;;;;7.47;3.75;;;21.50;86.50;;;;;;5092667;28;20040;-68
2021/07/19 07:12:23;;;;;;;3.50;3.17;;;21.80;86.30;;;;;;5092894;28;20107;-69
2021/07/19 07:14:48;;;;;;;8.10;3.20;;;21.90;85.80;;;;;;5092029;28;20387;-72
2021/07/19 07:17:15;;;;;;;4.57;3.20;;;22.10;85.60;;;;;;5092341;28;20435;-68
2021/07/19 07:19:40;;;;;;;3.75;3.33;;;22.40;85.20;;;;;;5084248;28;20016;-68
2021/07/19 07:22:06;;;;;;;6.45;3.40;;;22.70;84.60;;;;;;5092690;28;20042;-68
2021/07/19 07:24:31;;;;;;;7.57;3.15;;;22.90;84.10;;;;;;5091902;28;20047;-69
2021/07/19 07:26:57;;;;;;;4.90;2.97;;;23.20;83.40;;;;;;5088701;28;20070;-69
2021/07/19 07:29:22;;;;;;;6.15;3.38;;;23.40;82.60;;;;;;5092743;28;20035;-68
2021/07/19 07:31:48;;;;;;;4.57;3.20;;;23.60;81.90;;;;;;5074330;28;20026;-67
2021/07/19 07:34:14;;;;;;;3.35;2.35;;;23.90;81.50;;;;;;5092538;28;20035;-72
2021/07/19 07:36:40;;;;;;;6.05;2.85;;;24.10;80.60;;;;;;5091259;28;20020;-69
2021/07/19 07:39:06;;;;;;;10.10;3.25;;;24.40;80.10;;;;;;5092087;28;20042;-70
2021/07/19 07:41:31;;;;;;;4.40;2.67;;;24.50;79.50;;;;;;5092019;28;20028;-70
2021/07/19 07:43:58;;;;;;;4.53;2.97;;;24.80;78.90;;;;;;5092456;28;20089;-72
2021/07/19 07:46:24;;;;;;;5.70;3.20;;;25.00;78.00;;;;;;5091053;28;20060;-72
2021/07/19 07:48:51;;;;;;;8.35;2.97;;;25.30;77.70;;;;;;5074078;28;20053;-71
2021/07/19 07:51:16;;;;;;;5.55;2.85;;;25.50;76.80;;;;;;5092232;28;20058;-69
2021/07/19 07:53:42;;;;;;;2.95;2.58;;;25.90;75.90;;;;;;5091814;28;20024;-70
2021/07/19 07:56:07;;;;;;;3.28;2.47;;;26.20;75.00;;;;;;5091063;28;20115;-71
2021/07/19 07:58:33;;;;;;;5.60;2.70;;;26.60;73.70;;;;;;5091967;28;20023;-68
2021/07/19 08:00:59;;;;;;;6.28;2.85;;;26.90;72.90;;;;;;5092252;28;20028;-68
2021/07/19 08:03:24;;;;;;;5.10;2.83;;;27.10;72.40;;;;;;5091840;28;20024;-69
2021/07/19 08:05:50;;;;;;;3.42;2.50;;;27.40;71.90;;;;;;5091011;28;20091;-69
2021/07/19 08:08:15;;;;;;;3.05;2.75;;;27.80;70.90;;;;;;5091265;28;20028;-69
2021/07/19 08:10:41;;;;;;;5.35;2.80;;;28.10;70.40;;;;;;5091570;28;20031;-68
2021/07/19 08:13:07;;;;;;;2.60;2.20;;;28.40;69.60;;;;;;5091753;28;20031;-68
2021/07/19 08:15:34;;;;;;;3.78;2.80;;;28.60;69.00;;;;;;5072607;28;20020;-69
2021/07/19 08:18:00;;;;;;;3.65;2.85;;;28.60;67.00;;;;;;5090576;28;20020;-69
2021/07/19 08:20:25;;;;;;;5.35;2.63;;;28.50;67.00;;;;;;5091210;28;20100;-68
2021/07/19 08:22:51;;;;;;;5.28;2.95;;;28.50;67.50;;;;;;5091219;28;20047;-68
2021/07/19 08:25:18;;;;;;;3.97;2.50;;;28.60;67.60;;;;;;5090456;28;20085;-69
2021/07/19 08:27:45;;;;;;;3.83;2.28;;;28.70;67.40;;;;;;5069902;28;20035;-68
2021/07/19 08:30:11;;;;;;;4.43;2.60;;;29.00;67.20;;;;;;5091498;28;20129;-71
2021/07/19 08:32:38;;;;;;;2.97;2.33;;;29.30;66.40;;;;;;5091447;28;20030;-68
2021/07/19 08:35:09;;;;;;;4.53;2.53;;;29.60;65.40;;;;;;5090308;28;20027;-68
2021/07/19 08:37:36;;;;;;;6.30;2.88;;;29.80;65.20;;;;;;5091493;28;20024;-68
2021/07/19 08:40:03;;;;;;;4.95;2.80;;;30.10;64.20;;;;;;5090982;28;20136;-67
2021/07/19 08:42:30;;;;;;;4.65;2.60;;;30.30;63.60;;;;;;5091113;28;20081;-71
2021/07/19 08:44:55;;;;;;;8.80;2.92;;;30.80;63.00;;;;;;5090099;28;20024;-69
2021/07/19 08:47:21;;;;;;;7.35;2.67;;;31.20;61.60;;;;;;5091242;28;20024;-70
2021/07/19 08:49:46;;;;;;;7.72;2.50;;;31.50;60.30;;;;;;5090956;28;20059;-68
2021/07/19 08:52:16;;;;;;;40.03;29.85;;;31.80;60.00;;;;;;5091325;28;20032;-68
2021/07/19 08:54:47;;;;;;;7.28;3.25;;;32.10;58.90;;;;;;5089899;28;20035;-68
2021/07/19 08:57:15;;;;;;;3.22;2.60;;;32.50;57.90;;;;;;5091079;28;20077;-71
2021/07/19 08:59:41;;;;;;;4.85;2.25;;;32.90;57.40;;;;;;5091042;28;20687;-68
2021/07/19 09:02:10;;;;;;;6.30;2.55;;;33.20;56.20;;;;;;5091264;28;20039;-68
2021/07/19 09:04:38;;;;;;;10.02;2.40;;;33.60;55.20;;;;;;5089580;28;20032;-69
2021/07/19 09:07:04;;;;;;;6.32;2.50;;;34.10;54.00;;;;;;5091056;28;20034;-69
2021/07/19 09:09:31;;;;;;;3.25;2.10;;;34.60;52.80;;;;;;5090520;28;20386;-68
2021/07/19 09:12:01;;;;;;;3.10;2.33;;;34.60;51.50;;;;;;5090695;28;20060;-69
2021/07/19 09:14:27;;;;;;;4.57;2.30;;;34.70;51.60;;;;;;5090587;28;20027;-74
2021/07/19 09:16:54;;;;;;;4.72;2.20;;;34.80;51.10;;;;;;5090207;28;20016;-68
2021/07/19 09:19:22;;;;;;;3.33;2.28;;;35.10;50.60;;;;;;5090259;28;20032;-67
2021/07/19 09:21:54;;;;;;;5.03;2.30;;;34.80;50.30;;;;;;5090924;28;20070;-68
2021/07/19 09:24:22;;;;;;;3.20;2.22;;;33.40;52.50;;;;;;5090807;28;20427;-70
2021/07/19 09:26:49;;;;;;;3.70;2.15;;;32.30;54.10;;;;;;5086591;28;20534;-69
2021/07/19 09:29:19;;;;;;;4.00;2.40;;;31.90;54.90;;;;;;5092598;28;20077;-67
2021/07/19 09:31:50;;;;;;;4.63;1.92;;;32.90;53.50;;;;;;5094683;28;20024;-68
2021/07/19 09:34:19;;;;;;;;;;;33.90;52.10;;;;;;5095329;28;20024;-67
2021/07/19 09:37:03;;;;;;;4.10;2.17;;;34.90;53.30;;;;;;5093533;28;19904;-68
2021/07/19 09:39:41;;;;;;;4.88;2.30;;;35.60;51.00;;;;;;5094569;28;20055;-68
2021/07/19 09:42:12;;;;;;;3.28;2.38;;;35.90;50.00;;;;;;5094364;28;20040;-68
2021/07/19 09:44:38;;;;;;;3.88;2.20;;;34.60;50.80;;;;;;5093840;28;20039;-67
2021/07/19 09:47:07;;;;;;;6.75;2.50;;;33.50;52.10;;;;;;5094528;28;20032;-67
2021/07/19 09:49:33;;;;;;;2.40;2.05;;;32.80;52.00;;;;;;5094672;28;20157;-69
2021/07/19 09:52:05;;;;;;;4.65;2.17;;;33.10;51.30;;;;;;5094449;28;20024;-71
2021/07/19 09:54:39;;;;;;;17.13;7.20;;;33.60;49.60;;;;;;5093790;28;20356;-69
2021/07/19 09:57:06;;;;;;;8.50;6.95;;;33.90;49.70;;;;;;5094150;28;20020;-68
2021/07/19 09:59:33;;;;;;;9.73;2.60;;;34.10;50.20;;;;;;5094917;28;20021;-69
2021/07/19 10:02:00;;;;;;;3.05;1.90;;;34.40;51.00;;;;;;5094730;28;20020;-69
2021/07/19 10:04:25;;;;;;;1.98;1.75;;;34.60;49.40;;;;;;5094182;28;20028;-69
2021/07/19 10:06:53;;;;;;;3.22;1.92;;;34.70;49.70;;;;;;5092785;28;20024;-69
2021/07/19 10:09:23;;;;;;;3.70;2.10;;;34.80;50.00;;;;;;5093898;28;20040;-69
2021/07/19 10:11:54;;;;;;;6.03;1.87;;;34.80;50.10;;;;;;5093774;28;20108;-69
2021/07/19 10:14:30;;;;;;;4.63;1.65;;;34.90;50.00;;;;;;5094174;28;20104;-69
2021/07/19 10:16:57;;;;;;;4.10;2.10;;;34.90;50.50;;;;;;5093440;28;20031;-69
2021/07/19 10:19:24;;;;;;;3.80;2.13;;;34.70;50.20;;;;;;5093564;28;20024;-68
2021/07/19 10:21:50;;;;;;;3.63;1.73;;;34.10;49.50;;;;;;5093581;28;20064;-70
2021/07/19 10:24:16;;;;;;;4.22;1.80;;;33.90;49.80;;;;;;5093774;28;20503;-69
2021/07/19 10:26:42;;;;;;;2.88;1.83;;;33.70;49.50;;;;;;5089205;28;20030;-70
2021/07/19 10:29:08;;;;;;;2.10;1.67;;;33.60;50.10;;;;;;5093899;28;20476;-70
2021/07/19 10:31:34;;;;;;;4.25;2.00;;;33.60;50.00;;;;;;5093694;28;20028;-69
2021/07/19 10:34:03;;;;;;;1.88;1.50;;;33.50;49.50;;;;;;5093691;28;20539;-70
2021/07/19 10:36:34;;;;;;;4.10;1.45;;;33.40;50.80;;;;;;5092625;28;20024;-70
2021/07/19 10:39:09;;;;;;;2.00;1.70;;;33.40;50.10;;;;;;5093490;28;20411;-69
2021/07/19 10:41:36;;;;;;;5.28;1.90;;;33.30;50.90;;;;;;5092467;28;20053;-69
2021/07/19 10:44:03;;;;;;;3.42;1.83;;;32.80;51.60;;;;;;5093583;28;20144;-69
2021/07/19 10:46:29;;;;;;;4.30;2.45;;;32.40;50.50;;;;;;5092343;28;20173;-69
2021/07/19 10:49:27;;;;;;;3.20;2.20;;;31.90;49.80;;;;;;5093343;28;20111;-69
2021/07/19 10:51:53;;;;;;;2.85;1.75;;;31.40;51.00;;;;;;5091370;28;20032;-69
2021/07/19 10:54:21;;;;;;;1.92;1.40;;;31.10;51.00;;;;;;5092756;28;20016;-69
2021/07/19 10:56:51;;;;;;;1.50;1.40;;;30.90;50.80;;;;;;5091950;28;20016;-69
2021/07/19 10:59:33;;;;;;;5.18;1.73;;;30.80;50.80;;;;;;5093420;28;20017;-69
2021/07/19 11:01:59;;;;;;;9.38;2.00;;;30.70;51.20;;;;;;5093233;28;20050;-69
2021/07/19 11:04:26;;;;;;;3.47;1.70;;;30.80;52.30;;;;;;5093043;28;20031;-69
2021/07/19 11:06:59;;;;;;;5.25;1.63;;;30.80;52.10;;;;;;5092304;28;20062;-69
2021/07/19 11:09:40;;;;;;;2.60;1.55;;;30.80;52.50;;;;;;5113487;22;20068;-88
2021/07/19 11:12:12;;;;;;;1.75;1.65;;;30.70;52.60;;;;;;5075010;28;20055;-89
2021/07/19 11:14:46;;;;;;;2.05;1.85;;;30.60;52.60;;;;;;5074908;28;20012;-88
2021/07/19 11:17:12;;;;;;;3.78;1.70;;;30.40;52.30;;;;;;5093848;28;20073;-88
2021/07/19 11:19:41;;;;;;;1.98;1.80;;;30.40;52.80;;;;;;5064134;28;20013;-88
2021/07/19 11:22:09;;;;;;;4.55;1.50;;;30.20;52.50;;;;;;5081352;28;20024;-89
2021/07/19 11:24:49;;;;;;;4.25;2.15;;;30.00;52.70;;;;;;5074699;28;20063;-89
2021/07/19 11:27:22;;;;;;;1.70;1.60;;;29.90;52.90;;;;;;5079039;28;20024;-88
2021/07/19 11:30:03;;;;;;;5.22;1.70;;;29.80;52.90;;;;;;5073285;28;20024;-89
2021/07/19 11:32:30;;;;;;;2.00;1.50;;;29.80;53.30;;;;;;5055102;28;20060;-88
2021/07/19 11:35:07;;;;;;;6.22;1.40;;;29.80;53.10;;;;;;5054388;28;20046;-88
2021/07/19 11:37:34;;;;;;;5.43;1.73;;;29.90;53.00;;;;;;5055181;28;20048;-88
2021/07/19 11:40:00;;;;;;;4.00;1.83;;;30.10;53.90;;;;;;5068088;28;20364;-89
2021/07/19 11:42:30;;;;;;;3.03;1.67;;;30.20;53.50;;;;;;5084484;28;20023;-88
2021/07/19 11:45:08;;;;;;;3.65;2.00;;;30.20;52.40;;;;;;5074670;28;20392;-88
2021/07/19 11:47:50;;;;;;;3.28;1.85;;;30.20;53.40;;;;;;5074714;28;20146;-88
2021/07/19 11:50:18;;;;;;;2.85;2.00;;;30.20;53.00;;;;;;5092923;28;20081;-88
2021/07/19 11:52:45;;;;;;;2.97;1.83;;;30.30;53.00;;;;;;5075264;28;20400;-88
2021/07/19 11:55:14;;;;;;;5.15;1.75;;;30.40;52.90;;;;;;5074745;28;20024;-89
2021/07/19 11:58:00;;;;;;;3.58;1.83;;;30.50;53.50;;;;;;5095371;28;20020;-89
2021/07/19 12:00:30;;;;;;;4.18;1.80;;;30.50;54.20;;;;;;5094976;28;20020;-89
2021/07/19 12:03:10;;;;;;;4.22;1.75;;;30.40;53.10;;;;;;5095711;28;20034;-90
2021/07/19 12:05:36;;;;;;;5.18;1.80;;;30.40;52.60;;;;;;5097435;28;20023;-89
2021/07/19 12:08:09;;;;;;;4.32;1.83;;;30.50;51.90;;;;;;5097185;28;20494;-90
2021/07/19 12:10:38;;;;;;;3.58;1.58;;;30.40;52.30;;;;;;5077604;28;20038;-89
2021/07/19 12:13:13;;;;;;;3.08;1.40;;;30.40;53.20;;;;;;5075732;28;20035;-89
2021/07/19 12:15:52;;;;;;;2.53;1.42;;;30.40;52.80;;;;;;5074808;28;20506;-89
2021/07/19 12:18:54;;;;;;;2.78;1.60;;;30.50;52.60;;;;;;5092213;28;20016;-89
2021/07/19 12:21:25;;;;;;;3.13;1.67;;;30.70;53.20;;;;;;5077230;28;20067;-89
2021/07/19 12:23:53;;;;;;;;;;;30.80;53.50;;;;;;5070626;28;20024;-89
2021/07/19 12:26:41;;;;;;;12.85;7.68;;;31.00;54.00;;;;;;5075025;28;19904;-89
2021/07/19 12:29:10;;;;;;;4.38;1.48;;;31.00;52.00;;;;;;5093761;28;20027;-90
2021/07/19 12:31:45;;;;;;;1.92;1.42;;;31.10;52.20;;;;;;5077120;28;20020;-90
2021/07/19 12:34:17;;;;;;;2.50;1.40;;;31.10;52.00;;;;;;5075868;28;20020;-90
2021/07/19 12:36:48;;;;;;;;;;;31.20;51.50;;;;;;5076423;28;20054;-89
2021/07/19 12:39:16;;;;;;;5.45;1.50;;;31.20;52.70;;;;;;5075304;28;19908;-89
2021/07/19 12:41:46;;;;;;;3.00;1.60;;;31.30;52.00;;;;;;5067079;28;20024;-89
2021/07/19 12:44:12;;;;;;;2.25;1.70;;;31.30;51.40;;;;;;5075931;28;20078;-89
2021/07/19 12:46:40;;;;;;;2.05;1.48;;;31.40;51.30;;;;;;5092931;28;20060;-89
2021/07/19 12:49:06;;;;;;;3.63;1.55;;;31.50;51.20;;;;;;5075780;28;20028;-89
2021/07/19 12:51:32;;;;;;;5.70;1.88;;;31.50;52.40;;;;;;5075013;28;20024;-90
2021/07/19 12:53:59;;;;;;;4.43;1.60;;;31.50;51.80;;;;;;5068254;28;20110;-88